Time;durP1;ratioP1;P1;durP2;ratioP2;P2;SDS_P1;SDS_P2;PMS_P1;PMS_P2;Temp;Humidity;BMP_temperature;BMP_pressure;BME280_temperature;BME280_humidity;BME280_pressure;Samples;Min_cycle;Max_cycle;Signal;HPM_P1;HPM_P2
2023/10/29 00:00:03;;;;;;;3.13;1.20;;;;;;;9.39;100.00;99746.44;4997498;28;20436;-72
2023/10/29 00:02:30;;;;;;;2.67;1.00;;;;;;;9.39;100.00;99735.63;4996714;28;20520;-72
2023/10/29 00:04:57;;;;;;;2.83;0.90;;;;;;;9.42;100.00;99734.97;4996629;28;21001;-72
2023/10/29 00:07:23;;;;;;;2.70;0.83;;;;;;;9.43;100.00;99730.38;4997071;28;20499;-72
2023/10/29 00:09:51;;;;;;;3.77;1.03;;;;;;;9.44;100.00;99727.38;4996755;28;20524;-72
2023/10/29 00:12:18;;;;;;;3.00;1.50;;;;;;;9.45;100.00;99723.56;4997040;28;20441;-72
2023/10/29 00:14:44;;;;;;;3.10;1.30;;;;;;;9.50;100.00;99722.59;4996445;28;20974;-72
2023/10/29 00:17:11;;;;;;;3.27;1.53;;;;;;;9.55;100.00;99730.56;4996793;28;20448;-72
2023/10/29 00:19:38;;;;;;;3.43;1.00;;;;;;;9.58;100.00;99727.25;4996717;28;20445;-72
2023/10/29 00:22:05;;;;;;;2.60;0.90;;;;;;;9.59;100.00;99718.81;4996700;28;20459;-72
2023/10/29 00:24:31;;;;;;;2.50;0.77;;;;;;;9.62;100.00;99722.78;4996351;28;21068;-72
2023/10/29 00:26:59;;;;;;;2.50;0.93;;;;;;;9.65;100.00;99713.25;4997076;28;20447;-72
2023/10/29 00:29:26;;;;;;;2.57;1.00;;;;;;;9.69;100.00;99711.50;4996895;28;20480;-72
2023/10/29 00:31:52;;;;;;;4.50;1.53;;;;;;;9.68;100.00;99709.91;4996425;28;20954;-72
2023/10/29 00:34:19;;;;;;;2.73;1.00;;;;;;;9.71;100.00;99706.59;4996103;28;20532;-72
2023/10/29 00:36:45;;;;;;;3.33;1.30;;;;;;;9.69;100.00;99709.59;4996326;28;20441;-72
2023/10/29 00:39:12;;;;;;;2.63;0.90;;;;;;;9.72;100.00;99711.66;4996283;28;20477;-72
2023/10/29 00:41:39;;;;;;;2.43;1.00;;;;;;;9.78;100.00;99715.00;4996361;28;20444;-72
2023/10/29 00:44:07;;;;;;;3.40;1.40;;;;;;;9.75;100.00;99704.84;4996046;28;20553;-72
2023/10/29 00:46:34;;;;;;;2.40;0.70;;;;;;;9.77;100.00;99700.69;4996096;28;20556;-72
2023/10/29 00:49:02;;;;;;;2.10;0.50;;;;;;;9.77;100.00;99697.19;4996437;28;20519;-72
2023/10/29 00:51:30;;;;;;;3.27;1.00;;;;;;;9.79;100.00;99709.28;4996235;28;20775;-72
2023/10/29 00:53:56;;;;;;;2.90;1.20;;;;;;;9.77;100.00;99697.97;4995654;28;20493;-72
2023/10/29 00:56:23;;;;;;;4.60;1.20;;;;;;;9.77;100.00;99695.28;4996046;28;20487;-71
2023/10/29 00:58:51;;;;;;;2.57;0.90;;;;;;;9.79;100.00;99694.97;4995731;28;20955;-72
2023/10/29 01:01:19;;;;;;;2.90;0.90;;;;;;;9.80;100.00;99686.53;4996250;28;20524;-72
2023/10/29 01:03:46;;;;;;;2.40;0.90;;;;;;;9.80;100.00;99691.94;4995815;28;20449;-68
2023/10/29 01:06:12;;;;;;;2.63;0.97;;;;;;;9.79;100.00;99701.19;4995785;28;20512;-72
2023/10/29 01:08:39;;;;;;;2.87;0.93;;;;;;;9.77;100.00;99697.97;4995551;28;20931;-72
2023/10/29 01:11:07;;;;;;;2.03;0.63;;;;;;;9.84;100.00;99690.19;4995436;28;20441;-72
2023/10/29 01:13:33;;;;;;;2.20;0.73;;;;;;;9.86;100.00;99690.66;4995524;28;20941;-72
2023/10/29 01:16:02;;;;;;;3.57;1.30;;;;;;;9.87;100.00;99675.22;4995331;28;20896;-72
2023/10/29 01:18:30;;;;;;;2.20;0.80;;;;;;;9.86;100.00;99679.84;4995739;28;20437;-72
2023/10/29 01:20:56;;;;;;;2.30;1.00;;;;;;;9.89;100.00;99677.63;4995285;28;20560;-70
2023/10/29 01:23:23;;;;;;;2.20;0.87;;;;;;;9.92;100.00;99685.91;4995610;28;20847;-71
2023/10/29 01:25:50;;;;;;;2.20;0.57;;;;;;;9.90;100.00;99669.19;4995395;28;20497;-71
2023/10/29 01:28:17;;;;;;;2.50;0.80;;;;;;;9.95;100.00;99668.22;4995597;28;20444;-71
2023/10/29 01:30:44;;;;;;;2.03;0.70;;;;;;;10.02;100.00;99669.34;4995550;28;20440;-72
2023/10/29 01:33:10;;;;;;;2.53;0.77;;;;;;;10.05;100.00;99666.00;4995853;28;20539;-72
2023/10/29 01:35:38;;;;;;;2.20;0.70;;;;;;;10.11;100.00;99653.13;4995396;28;20457;-72
2023/10/29 01:38:05;;;;;;;1.90;0.50;;;;;;;10.15;100.00;99642.44;4996133;28;20473;-72
2023/10/29 01:40:31;;;;;;;2.50;0.80;;;;;;;10.15;100.00;99654.06;4995332;28;20531;-72
2023/10/29 01:42:58;;;;;;;2.30;0.67;;;;;;;10.21;100.00;99655.47;4995010;28;20791;-72
2023/10/29 01:45:25;;;;;;;2.60;0.70;;;;;;;10.22;100.00;99651.66;4995453;28;20528;-72
2023/10/29 01:47:51;;;;;;;2.13;0.60;;;;;;;10.26;100.00;99658.03;4995207;28;20459;-72
2023/10/29 01:50:18;;;;;;;2.80;1.00;;;;;;;10.28;100.00;99647.69;4995679;28;20441;-71
2023/10/29 01:52:46;;;;;;;2.00;0.57;;;;;;;10.32;100.00;99643.22;4995116;28;20499;-71
2023/10/29 01:55:12;;;;;;;3.33;1.33;;;;;;;10.32;100.00;99635.13;4994438;28;20473;-71
2023/10/29 01:57:39;;;;;;;2.40;0.63;;;;;;;10.31;100.00;99638.94;4995065;28;20458;-72
2023/10/29 02:00:08;;;;;;;2.40;0.70;;;;;;;10.27;100.00;99629.88;4995352;28;20437;-72
2023/10/29 02:02:35;;;;;;;2.10;0.60;;;;;;;10.24;100.00;99626.97;4995429;28;20449;-72
2023/10/29 02:05:03;;;;;;;2.00;0.60;;;;;;;10.29;100.00;99624.91;4995288;28;20483;-72
2023/10/29 02:07:30;;;;;;;2.23;0.63;;;;;;;10.27;100.00;99618.22;4994862;28;20449;-72
2023/10/29 02:09:58;;;;;;;2.43;0.67;;;;;;;10.29;100.00;99618.72;4994792;28;20451;-72
2023/10/29 02:12:24;;;;;;;2.00;0.50;;;;;;;10.29;100.00;99619.50;4994915;28;20767;-72
2023/10/29 02:14:51;;;;;;;2.10;0.60;;;;;;;10.26;100.00;99611.22;4994739;28;20457;-72
2023/10/29 02:17:18;;;;;;;2.10;0.70;;;;;;;10.29;100.00;99633.03;4994717;28;20469;-72
2023/10/29 02:19:44;;;;;;;3.27;1.00;;;;;;;10.30;100.00;99633.84;4995497;28;20496;-72
2023/10/29 02:22:12;;;;;;;2.40;0.70;;;;;;;10.31;100.00;99641.66;4994732;28;20452;-72
2023/10/29 02:24:39;;;;;;;2.50;1.00;;;;;;;10.33;100.00;99641.31;4994540;28;20500;-72
2023/10/29 02:27:06;;;;;;;2.00;0.60;;;;;;;10.34;100.00;99643.69;4994452;28;20485;-72
2023/10/29 02:29:33;;;;;;;2.00;0.50;;;;;;;10.34;100.00;99635.56;4994714;28;20440;-72
2023/10/29 02:31:59;;;;;;;2.50;0.87;;;;;;;10.33;100.00;99633.19;4994455;28;20448;-72
2023/10/29 02:34:26;;;;;;;2.20;0.60;;;;;;;10.34;100.00;99630.16;4994413;28;20515;-72
2023/10/29 02:36:52;;;;;;;2.33;0.70;;;;;;;10.40;100.00;99627.28;4994337;28;20524;-72
2023/10/29 02:39:20;;;;;;;3.20;0.90;;;;;;;10.43;100.00;99629.34;4994479;28;20437;-72
2023/10/29 02:41:47;;;;;;;2.00;0.50;;;;;;;10.46;100.00;99620.59;4994854;28;20487;-72
2023/10/29 02:44:14;;;;;;;3.30;1.07;;;;;;;10.48;100.00;99629.16;4994224;28;20461;-72
2023/10/29 02:46:40;;;;;;;2.20;0.70;;;;;;;10.51;100.00;99631.22;4994722;28;20488;-72
2023/10/29 02:49:07;;;;;;;2.93;0.70;;;;;;;10.53;100.00;99637.09;4994853;28;20536;-72
2023/10/29 02:51:34;;;;;;;2.20;0.60;;;;;;;10.53;100.00;99628.97;4994468;28;20539;-72
2023/10/29 02:54:00;;;;;;;2.23;0.80;;;;;;;10.53;100.00;99634.41;4994138;28;20472;-71
2023/10/29 02:56:30;;;;;;;2.20;0.60;;;;;;;10.52;100.00;99639.03;4994233;28;20998;-72
2023/10/29 02:58:57;;;;;;;3.50;0.80;;;;;;;10.54;100.00;99641.44;4993789;28;20938;-72
2023/10/29 03:01:23;;;;;;;1.97;0.53;;;;;;;10.54;100.00;99638.72;4994253;28;20926;-72
2023/10/29 03:03:50;;;;;;;2.90;1.00;;;;;;;10.57;100.00;99640.75;4994626;28;20464;-72
2023/10/29 03:06:17;;;;;;;2.00;0.50;;;;;;;10.60;100.00;99649.03;4996239;28;20484;-72
2023/10/29 03:08:43;;;;;;;2.37;0.80;;;;;;;10.61;100.00;99652.53;5000520;28;20511;-72
2023/10/29 03:11:11;;;;;;;2.10;0.67;;;;;;;10.62;100.00;99654.13;5000353;28;20887;-72
2023/10/29 03:13:39;;;;;;;2.87;0.83;;;;;;;10.60;100.00;99654.44;5000177;28;20889;-72
2023/10/29 03:16:06;;;;;;;2.10;0.87;;;;;;;10.60;100.00;99649.03;5001306;28;20507;-72
2023/10/29 03:18:33;;;;;;;3.30;1.10;;;;;;;10.58;100.00;99634.22;5000388;28;20527;-72
2023/10/29 03:20:59;;;;;;;3.17;1.10;;;;;;;10.53;100.00;99631.69;5000563;28;20535;-72
2023/10/29 03:23:26;;;;;;;2.20;0.70;;;;;;;10.57;100.00;99621.81;5001212;28;20507;-72
2023/10/29 03:25:53;;;;;;;2.80;1.00;;;;;;;10.57;100.00;99625.31;5000691;28;20548;-72
2023/10/29 03:28:20;;;;;;;2.80;1.07;;;;;;;10.57;100.00;99605.56;5000437;28;20807;-72
2023/10/29 03:30:48;;;;;;;3.10;1.20;;;;;;;10.54;100.00;99607.00;5000682;28;20441;-72
2023/10/29 03:33:14;;;;;;;2.13;0.63;;;;;;;10.59;100.00;99611.47;5000232;28;20477;-72
2023/10/29 03:35:41;;;;;;;2.70;0.93;;;;;;;10.59;100.00;99597.91;5000187;28;20833;-72
2023/10/29 03:38:08;;;;;;;3.60;0.70;;;;;;;10.54;100.00;99589.97;5000642;28;20529;-72
2023/10/29 03:40:35;;;;;;;1.93;0.53;;;;;;;10.55;100.00;99584.22;5000285;28;20452;-73
2023/10/29 03:43:02;;;;;;;5.30;1.30;;;;;;;10.54;100.00;99593.47;5000306;28;20472;-72
2023/10/29 03:45:28;;;;;;;2.10;0.60;;;;;;;10.54;100.00;99585.34;5000355;28;20472;-70
2023/10/29 03:47:56;;;;;;;2.10;0.60;;;;;;;10.57;100.00;99573.84;5000177;28;20888;-72
2023/10/29 03:50:23;;;;;;;2.93;0.80;;;;;;;10.59;100.00;99573.53;5000036;28;20885;-72
2023/10/29 03:52:50;;;;;;;2.30;0.80;;;;;;;10.64;100.00;99573.34;5000148;28;20453;-72
2023/10/29 03:55:17;;;;;;;2.20;0.70;;;;;;;10.67;100.00;99571.91;5000461;28;20468;-72
2023/10/29 03:57:43;;;;;;;3.03;0.90;;;;;;;10.67;100.00;99567.31;5000703;28;20451;-72
2023/10/29 04:00:11;;;;;;;1.90;0.47;;;;;;;10.68;100.00;99566.16;5000903;28;20539;-72
2023/10/29 04:02:37;;;;;;;2.23;0.67;;;;;;;10.69;100.00;99562.34;5000078;28;20439;-72
2023/10/29 04:05:06;;;;;;;2.53;0.80;;;;;;;10.69;100.00;99575.88;5000323;28;20543;-72
2023/10/29 04:07:33;;;;;;;2.50;0.80;;;;;;;10.73;100.00;99576.03;4999958;28;20487;-72
2023/10/29 04:10:00;;;;;;;2.13;0.70;;;;;;;10.73;100.00;99565.97;5000387;28;20545;-72
2023/10/29 04:12:27;;;;;;;2.27;0.60;;;;;;;10.73;100.00;99557.84;5000173;28;20451;-72
2023/10/29 04:14:54;;;;;;;3.10;0.73;;;;;;;10.74;100.00;99567.56;5000221;28;20464;-72
2023/10/29 04:17:21;;;;;;;2.10;0.70;;;;;;;10.80;100.00;99562.75;4998881;28;20537;-72
2023/10/29 04:19:48;;;;;;;2.10;0.70;;;;;;;10.82;100.00;99563.22;4996981;28;20456;-72
2023/10/29 04:22:16;;;;;;;3.20;1.00;;;;;;;10.83;100.00;99562.88;4996395;28;20560;-72
2023/10/29 04:24:43;;;;;;;2.23;0.60;;;;;;;10.84;100.00;99559.06;4996746;28;20970;-72
2023/10/29 04:27:09;;;;;;;2.60;0.90;;;;;;;10.80;100.00;99552.72;4997210;28;20583;-72
2023/10/29 04:29:36;;;;;;;2.13;0.60;;;;;;;10.83;100.00;99554.75;4997126;28;20441;-72
2023/10/29 04:32:03;;;;;;;2.40;0.67;;;;;;;10.86;100.00;99551.41;4997252;28;20445;-72
2023/10/29 04:34:29;;;;;;;2.40;0.73;;;;;;;10.88;100.00;99540.22;4996889;28;20463;-72
2023/10/29 04:36:56;;;;;;;2.23;0.50;;;;;;;10.91;100.00;99530.66;4996246;28;20437;-72
2023/10/29 04:39:24;;;;;;;2.60;0.60;;;;;;;10.87;100.00;99516.97;4996535;28;20445;-72
2023/10/29 04:41:51;;;;;;;2.03;0.57;;;;;;;10.86;100.00;99502.66;4996832;28;20524;-72
2023/10/29 04:44:18;;;;;;;1.97;0.50;;;;;;;10.80;100.00;99509.38;4996482;28;20465;-72
2023/10/29 04:46:44;;;;;;;2.30;0.63;;;;;;;10.82;100.00;99504.41;4996008;28;21056;-72
2023/10/29 04:49:11;;;;;;;2.40;0.60;;;;;;;10.82;100.00;99495.50;4996160;28;20536;-73
2023/10/29 04:51:38;;;;;;;2.30;0.63;;;;;;;10.82;100.00;99487.38;4996306;28;20855;-73
2023/10/29 04:54:05;;;;;;;2.83;1.00;;;;;;;10.81;100.00;99469.53;4996155;28;20568;-73
2023/10/29 04:56:33;;;;;;;2.10;0.60;;;;;;;10.80;100.00;99467.94;4995905;28;20473;-73
2023/10/29 04:59:00;;;;;;;2.30;0.50;;;;;;;10.80;100.00;99466.06;4996172;28;20484;-73
2023/10/29 05:01:27;;;;;;;2.13;0.63;;;;;;;10.81;100.00;99467.63;4996091;28;20440;-73
2023/10/29 05:03:53;;;;;;;4.27;0.97;;;;;;;10.83;100.00;99468.06;4996067;28;20457;-73
2023/10/29 05:06:20;;;;;;;2.00;0.60;;;;;;;10.81;100.00;99464.91;4995804;28;20504;-70
2023/10/29 05:08:47;;;;;;;1.97;0.50;;;;;;;10.85;100.00;99454.22;4996039;28;20491;-71
2023/10/29 05:11:14;;;;;;;2.20;0.70;;;;;;;10.85;100.00;99460.44;4995737;28;20976;-73
2023/10/29 05:13:42;;;;;;;2.30;0.80;;;;;;;10.91;100.00;99449.38;4996142;28;20495;-72
2023/10/29 05:16:09;;;;;;;2.63;1.10;;;;;;;10.90;100.00;99462.16;4995819;28;20536;-73
2023/10/29 05:18:35;;;;;;;2.20;0.53;;;;;;;10.92;100.00;99448.25;4995950;28;20508;-73
2023/10/29 05:21:02;;;;;;;2.70;1.03;;;;;;;10.93;100.00;99455.25;4995805;28;20839;-72
2023/10/29 05:23:29;;;;;;;2.00;0.60;;;;;;;10.97;100.00;99450.75;4996064;28;20506;-73
2023/10/29 05:25:56;;;;;;;2.80;0.97;;;;;;;10.98;100.00;99436.91;4995543;28;20520;-73
2023/10/29 05:28:23;;;;;;;2.47;0.87;;;;;;;11.01;100.00;99436.22;4995689;28;20485;-73
2023/10/29 05:30:51;;;;;;;2.10;0.50;;;;;;;11.07;100.00;99440.31;4994796;28;20433;-72
2023/10/29 05:33:17;;;;;;;2.20;0.70;;;;;;;11.08;100.00;99436.50;4995712;28;20483;-73
2023/10/29 05:35:45;;;;;;;2.37;0.60;;;;;;;11.09;100.00;99440.00;4995143;28;20994;-73
2023/10/29 05:38:12;;;;;;;2.63;0.80;;;;;;;11.13;100.00;99432.00;4995462;28;20445;-73
2023/10/29 05:40:38;;;;;;;2.50;0.87;;;;;;;11.09;100.00;99432.66;4995375;28;20475;-73
2023/10/29 05:43:05;;;;;;;2.83;0.77;;;;;;;11.13;100.00;99430.06;4995020;28;20855;-73
2023/10/29 05:45:32;;;;;;;2.93;1.00;;;;;;;11.17;100.00;99431.00;4995580;28;20507;-73
2023/10/29 05:48:00;;;;;;;2.60;0.87;;;;;;;11.19;100.00;99414.38;4994830;28;21009;-73
2023/10/29 05:50:26;;;;;;;2.10;0.60;;;;;;;11.23;100.00;99420.72;4995535;28;20443;-73
2023/10/29 05:52:53;;;;;;;2.10;0.60;;;;;;;11.22;100.00;99436.19;4995185;28;20998;-73
2023/10/29 05:55:22;;;;;;;2.50;0.70;;;;;;;11.22;100.00;99441.63;4995035;28;20552;-73
2023/10/29 05:57:49;;;;;;;2.50;0.70;;;;;;;11.24;100.00;99441.28;4995432;28;20511;-73
2023/10/29 06:00:17;;;;;;;2.13;0.60;;;;;;;11.28;100.00;99445.69;4995108;28;20495;-73
2023/10/29 06:02:44;;;;;;;3.10;1.10;;;;;;;11.28;100.00;99440.28;4995027;28;20451;-73
2023/10/29 06:05:12;;;;;;;2.00;0.57;;;;;;;11.29;100.00;99446.53;4994627;28;20495;-73
2023/10/29 06:07:42;;;;;;;2.10;0.70;;;;;;;11.29;100.00;99441.09;4995095;28;20845;-73
2023/10/29 06:10:10;;;;;;;2.13;0.73;;;;;;;11.28;100.00;99432.16;4994818;28;20457;-73
2023/10/29 06:12:37;;;;;;;3.77;0.97;;;;;;;11.30;100.00;99432.63;4994884;28;20524;-73
2023/10/29 06:15:04;;;;;;;2.30;0.63;;;;;;;11.33;100.00;99437.38;4995055;28;20463;-73
2023/10/29 06:17:31;;;;;;;2.43;0.60;;;;;;;11.36;100.00;99441.31;4994416;28;20532;-73
2023/10/29 06:19:57;;;;;;;2.30;0.70;;;;;;;11.35;100.00;99445.97;4994627;28;20433;-73
2023/10/29 06:22:25;;;;;;;2.47;0.80;;;;;;;11.31;100.00;99444.25;4994743;28;20510;-73
2023/10/29 06:24:52;;;;;;;2.40;0.70;;;;;;;11.30;100.00;99432.63;4994737;28;20552;-73
2023/10/29 06:27:19;;;;;;;4.13;1.10;;;;;;;11.29;100.00;99436.47;4994778;28;20491;-72
2023/10/29 06:29:45;;;;;;;2.30;0.60;;;;;;;11.35;100.00;99434.31;4993914;28;20449;-73
2023/10/29 06:32:12;;;;;;;2.60;0.77;;;;;;;11.36;100.00;99436.69;4994442;28;20536;-73
2023/10/29 06:34:39;;;;;;;2.50;0.90;;;;;;;11.40;100.00;99439.53;4994586;28;20457;-73
2023/10/29 06:37:05;;;;;;;2.10;0.70;;;;;;;11.44;100.00;99431.53;4994690;28;20632;-72
2023/10/29 06:39:33;;;;;;;1.90;0.40;;;;;;;11.44;100.00;99432.31;4994402;28;21009;-72
2023/10/29 06:42:00;;;;;;;2.60;0.80;;;;;;;11.46;100.00;99426.56;4993942;28;20469;-72
2023/10/29 06:44:27;;;;;;;4.43;0.80;;;;;;;11.43;100.00;99430.75;4994178;28;20497;-72
2023/10/29 06:46:53;;;;;;;2.23;0.70;;;;;;;11.42;100.00;99436.47;4993881;28;20492;-72
2023/10/29 06:49:20;;;;;;;2.70;0.63;;;;;;;11.47;100.00;99444.44;4994560;28;20536;-71
2023/10/29 06:51:46;;;;;;;1.87;0.40;;;;;;;11.47;100.00;99441.72;4994159;28;20953;-71
2023/10/29 06:54:13;;;;;;;2.73;0.70;;;;;;;11.49;100.00;99445.66;4993830;28;20461;-71
2023/10/29 06:56:41;;;;;;;5.20;0.80;;;;;;;11.47;100.00;99447.94;4994504;28;20528;-71
2023/10/29 06:59:08;;;;;;;2.00;0.60;;;;;;;11.47;100.00;99439.00;4994206;28;20807;-71
2023/10/29 07:01:34;;;;;;;2.63;0.60;;;;;;;11.49;100.00;99439.44;4994141;28;20437;-73
2023/10/29 07:04:01;;;;;;;2.70;0.73;;;;;;;11.53;100.00;99440.38;4994364;28;20460;-70
2023/10/29 07:06:30;;;;;;;2.10;0.60;;;;;;;11.51;100.00;99437.19;4994017;28;20491;-71
2023/10/29 07:08:57;;;;;;;2.40;0.87;;;;;;;11.52;100.00;99434.16;4994350;28;20445;-70
2023/10/29 07:11:24;;;;;;;2.00;0.40;;;;;;;11.53;100.00;99434.94;4994005;28;20441;-70
2023/10/29 07:13:53;;;;;;;1.90;0.50;;;;;;;11.54;100.00;99422.97;4993777;28;20461;-76
2023/10/29 07:16:19;;;;;;;2.30;0.60;;;;;;;11.50;100.00;99420.13;4993912;28;20923;-77
2023/10/29 07:18:46;;;;;;;2.10;0.60;;;;;;;11.53;100.00;99429.50;4994013;28;20472;-75
2023/10/29 07:21:14;;;;;;;2.80;0.63;;;;;;;11.57;100.00;99433.94;4993677;28;20523;-72
2023/10/29 07:23:41;;;;;;;2.80;0.87;;;;;;;11.58;100.00;99438.22;4994184;28;20852;-74
2023/10/29 07:26:08;;;;;;;2.00;0.60;;;;;;;11.60;100.00;99425.13;4994246;28;20527;-74
2023/10/29 07:28:34;;;;;;;3.90;0.70;;;;;;;11.62;100.00;99411.22;4993807;28;20485;-73
2023/10/29 07:31:03;;;;;;;2.43;0.73;;;;;;;11.60;100.00;99419.72;4993587;28;20965;-77
2023/10/29 07:33:30;;;;;;;1.90;0.50;;;;;;;11.58;100.00;99421.16;4994505;28;20441;-78
2023/10/29 07:35:56;;;;;;;2.00;0.50;;;;;;;11.60;100.00;99422.41;4995108;28;20544;-78
2023/10/29 07:38:23;;;;;;;2.10;0.77;;;;;;;11.60;100.00;99408.84;4994639;28;20934;-77
2023/10/29 07:40:50;;;;;;;2.00;0.50;;;;;;;11.60;100.00;99418.91;4994816;28;20445;-76
2023/10/29 07:43:16;;;;;;;2.30;0.90;;;;;;;11.62;100.00;99427.50;4993740;28;20437;-76
2023/10/29 07:45:43;;;;;;;2.73;0.73;;;;;;;11.61;100.00;99420.50;4993943;28;20463;-76
2023/10/29 07:48:12;;;;;;;1.97;0.53;;;;;;;11.62;100.00;99443.78;4993715;28;20520;-75
2023/10/29 07:50:38;;;;;;;2.77;0.70;;;;;;;11.61;100.00;99450.34;4993816;28;20519;-76
2023/10/29 07:53:05;;;;;;;2.17;0.70;;;;;;;11.59;100.00;99436.28;4995158;28;20507;-77
2023/10/29 07:55:32;;;;;;;2.40;0.70;;;;;;;11.61;100.00;99437.56;4997992;28;20471;-77
2023/10/29 07:57:59;;;;;;;2.00;0.60;;;;;;;11.60;100.00;99448.75;4999626;28;20443;-77
2023/10/29 08:00:25;;;;;;;2.90;1.13;;;;;;;11.60;100.00;99427.84;4997583;28;20447;-77
2023/10/29 08:02:52;;;;;;;2.97;0.90;;;;;;;11.60;100.00;99418.91;4997133;28;20998;-76
2023/10/29 08:05:20;;;;;;;3.47;1.30;;;;;;;11.57;100.00;99404.09;4997231;28;20496;-74
2023/10/29 08:07:46;;;;;;;2.20;0.60;;;;;;;11.59;100.00;99414.59;4997201;28;20488;-74
2023/10/29 08:10:13;;;;;;;2.83;1.00;;;;;;;11.58;100.00;99411.09;4997395;28;20441;-74
2023/10/29 08:12:40;;;;;;;2.50;0.90;;;;;;;11.56;100.00;99415.28;4996800;28;20440;-74
2023/10/29 08:15:07;;;;;;;2.20;0.63;;;;;;;11.59;100.00;99406.47;4997317;28;20596;-74
2023/10/29 08:17:34;;;;;;;2.40;1.03;;;;;;;11.59;100.00;99403.75;4997256;28;20433;-74
2023/10/29 08:20:00;;;;;;;2.40;1.07;;;;;;;11.61;100.00;99407.72;4996735;28;20637;-74
2023/10/29 08:22:28;;;;;;;2.97;1.10;;;;;;;11.62;100.00;99416.66;4996550;28;20539;-74
2023/10/29 08:24:56;;;;;;;2.10;0.53;;;;;;;11.61;100.00;99415.06;4997080;28;20564;-74
2023/10/29 08:27:23;;;;;;;2.27;0.60;;;;;;;11.61;100.00;99426.72;4996412;28;20480;-75
2023/10/29 08:29:50;;;;;;;2.47;0.90;;;;;;;11.63;100.00;99424.44;4997074;28;20451;-74
2023/10/29 08:32:17;;;;;;;2.37;0.80;;;;;;;11.63;100.00;99427.16;4996365;28;20828;-74
2023/10/29 08:34:44;;;;;;;2.33;0.90;;;;;;;11.64;100.00;99417.09;4996573;28;20465;-74
2023/10/29 08:37:11;;;;;;;2.13;0.50;;;;;;;11.66;100.00;99422.19;4996567;28;20492;-73
2023/10/29 08:39:39;;;;;;;2.40;0.80;;;;;;;11.68;100.00;99404.44;4996649;28;20445;-74
2023/10/29 08:42:06;;;;;;;2.20;0.73;;;;;;;11.72;100.00;99418.91;4997170;28;20447;-74
2023/10/29 08:44:33;;;;;;;3.03;0.53;;;;;;;11.75;100.00;99410.13;4996354;28;20558;-72
2023/10/29 08:46:59;;;;;;;3.20;0.93;;;;;;;11.79;100.00;99404.81;4996690;28;20479;-72
2023/10/29 08:49:26;;;;;;;2.07;0.60;;;;;;;11.83;100.00;99416.59;4996002;28;20451;-70
2023/10/29 08:51:52;;;;;;;2.17;0.53;;;;;;;11.88;100.00;99394.66;4996144;28;20472;-71
2023/10/29 08:54:19;;;;;;;2.83;0.80;;;;;;;11.95;100.00;99410.38;4996388;28;20449;-71
2023/10/29 08:56:47;;;;;;;3.13;0.83;;;;;;;12.02;100.00;99407.91;4995917;28;21029;-72
2023/10/29 08:59:13;;;;;;;2.10;0.70;;;;;;;12.08;100.00;99409.25;4996266;28;20636;-72
2023/10/29 09:01:40;;;;;;;2.20;0.70;;;;;;;12.10;100.00;99404.28;4996106;28;20503;-72
2023/10/29 09:04:08;;;;;;;3.70;1.13;;;;;;;12.12;100.00;99388.44;4995753;28;20469;-73
2023/10/29 09:06:37;;;;;;;2.17;0.63;;;;;;;12.18;100.00;99397.16;4996113;28;20445;-72
2023/10/29 09:09:04;;;;;;;4.00;0.90;;;;;;;12.22;100.00;99401.56;4996292;28;20535;-73
2023/10/29 09:11:31;;;;;;;2.90;0.80;;;;;;;12.20;100.00;99375.88;4996000;28;20994;-72
2023/10/29 09:14:01;;;;;;;2.40;0.70;;;;;;;12.18;100.00;99395.22;4996159;28;20547;-72
2023/10/29 09:16:27;;;;;;;2.37;0.67;;;;;;;12.19;100.00;99382.44;4996166;28;20449;-72
2023/10/29 09:18:54;;;;;;;2.00;0.67;;;;;;;12.24;100.00;99385.72;4995513;28;21014;-72
2023/10/29 09:21:21;;;;;;;2.00;0.50;;;;;;;12.24;100.00;99385.72;4995587;28;20495;-72
2023/10/29 09:23:47;;;;;;;2.00;0.60;;;;;;;12.28;100.00;99411.03;4996304;28;20447;-72
2023/10/29 09:26:14;;;;;;;2.20;0.60;;;;;;;12.36;100.00;99422.94;4995982;28;20527;-72
2023/10/29 09:28:42;;;;;;;2.30;0.50;;;;;;;12.42;100.00;99399.81;4995741;28;20488;-73
2023/10/29 09:31:16;;;;;;;2.30;0.70;;;;;;;12.47;100.00;99415.09;4995632;28;20480;-71
2023/10/29 09:33:42;;;;;;;2.57;0.83;;;;;;;12.55;100.00;99406.03;4995696;28;20425;-73
2023/10/29 09:36:09;;;;;;;2.20;0.70;;;;;;;12.57;100.00;99412.72;4995502;28;20437;-72
2023/10/29 09:38:36;;;;;;;1.97;0.53;;;;;;;12.63;100.00;99422.19;4995452;28;20433;-72
2023/10/29 09:41:03;;;;;;;3.27;0.63;;;;;;;12.62;100.00;99419.84;4995445;28;20449;-73
2023/10/29 09:43:36;;;;;;;2.10;0.60;;;;;;;12.67;100.00;99416.88;4995264;28;20452;-72
2023/10/29 09:46:06;;;;;;;2.03;0.60;;;;;;;12.68;100.00;99417.66;4995027;28;20911;-72
2023/10/29 09:48:35;;;;;;;2.00;0.50;;;;;;;12.66;100.00;99412.59;4995351;28;20544;-72
2023/10/29 09:51:03;;;;;;;2.20;0.70;;;;;;;12.65;100.00;99412.91;4995072;28;20447;-72
2023/10/29 09:53:31;;;;;;;2.10;0.60;;;;;;;12.67;100.00;99432.38;4994853;28;20791;-72
2023/10/29 09:55:59;;;;;;;2.07;0.73;;;;;;;12.72;100.00;99422.06;4995528;28;20544;-72
2023/10/29 09:58:27;;;;;;;4.53;0.93;;;;;;;12.74;100.00;99419.78;4995157;28;20443;-72
2023/10/29 10:00:53;;;;;;;2.40;0.80;;;;;;;12.76;100.00;99435.75;4995082;28;20445;-72
2023/10/29 10:03:20;;;;;;;2.30;0.80;;;;;;;12.78;100.00;99438.91;4995062;28;20455;-72
2023/10/29 10:05:48;;;;;;;2.90;0.80;;;;;;;12.78;100.00;99445.13;4995157;28;20551;-72
2023/10/29 10:08:15;;;;;;;3.40;0.97;;;;;;;12.83;100.00;99447.59;4994953;28;20836;-71
2023/10/29 10:10:42;;;;;;;2.10;0.90;;;;;;;12.80;100.00;99445.59;4994840;28;20451;-71
2023/10/29 10:13:10;;;;;;;2.60;0.90;;;;;;;12.79;100.00;99446.72;4994805;28;20477;-72
2023/10/29 10:15:37;;;;;;;2.93;0.90;;;;;;;12.81;100.00;99443.66;4994285;28;20536;-72
2023/10/29 10:18:06;;;;;;;2.50;0.80;;;;;;;12.86;100.00;99454.28;4994723;28;20484;-71
2023/10/29 10:20:33;;;;;;;2.00;0.60;;;;;;;12.88;100.00;99458.25;5011293;23;20531;-73
2023/10/29 10:23:02;;;;;;;3.93;1.13;;;;;;;12.91;100.00;99459.47;5014067;28;20459;-73
2023/10/29 10:25:30;;;;;;;2.43;0.80;;;;;;;12.91;100.00;99436.94;4998947;28;20467;-71
2023/10/29 10:27:58;;;;;;;2.30;0.60;;;;;;;12.93;100.00;99423.81;4994486;28;20491;-70
2023/10/29 10:30:29;;;;;;;2.30;0.67;;;;;;;13.00;100.00;99445.75;4996215;28;20531;-71
2023/10/29 10:33:09;;;;;;;2.17;0.67;;;;;;;13.01;100.00;99445.41;4994905;28;20457;-72
2023/10/29 10:35:41;;;;;;;2.00;0.60;;;;;;;13.04;100.00;99430.34;5010290;28;21004;-71
2023/10/29 10:38:09;;;;;;;2.00;0.60;;;;;;;13.00;100.00;99434.88;5013733;28;20449;-72
2023/10/29 10:40:37;;;;;;;2.73;1.10;;;;;;;12.99;100.00;99439.53;5013775;28;20439;-72
2023/10/29 10:43:04;;;;;;;2.67;0.87;;;;;;;13.05;100.00;99440.06;5014025;28;20498;-71
2023/10/29 10:45:33;;;;;;;2.83;0.93;;;;;;;13.07;100.00;99443.25;5014570;28;20484;-71
2023/10/29 10:48:03;;;;;;;2.10;0.60;;;;;;;13.12;100.00;99451.16;5014000;28;20479;-72
2023/10/29 10:50:31;;;;;;;2.00;0.60;;;;;;;13.14;100.00;99459.75;5014360;28;20500;-73
2023/10/29 10:52:58;;;;;;;3.40;1.00;;;;;;;13.18;100.00;99448.97;5014058;28;20498;-73
2023/10/29 10:55:26;;;;;;;2.20;0.57;;;;;;;13.24;100.00;99453.06;5013569;28;20464;-73
2023/10/29 10:57:53;;;;;;;1.80;0.40;;;;;;;13.30;100.00;99455.19;5013957;28;20448;-72
2023/10/29 11:00:21;;;;;;;3.00;1.10;;;;;;;13.35;100.00;99441.31;5013556;28;20464;-70
2023/10/29 11:02:49;;;;;;;2.40;0.77;;;;;;;13.43;100.00;99441.53;5013724;28;20536;-72
2023/10/29 11:05:17;;;;;;;3.10;1.00;;;;;;;13.52;100.00;99434.00;5014066;28;20544;-71
2023/10/29 11:07:45;;;;;;;2.80;1.00;;;;;;;13.69;100.00;99433.66;5014248;28;20436;-71
2023/10/29 11:10:14;;;;;;;2.00;0.60;;;;;;;13.90;100.00;99427.97;5013360;28;20450;-72
2023/10/29 11:12:42;;;;;;;2.43;0.90;;;;;;;14.05;100.00;99429.09;5013352;28;20889;-72
2023/10/29 11:15:14;;;;;;;2.40;0.83;;;;;;;14.06;100.00;99419.78;5013300;28;20452;-71
2023/10/29 11:17:52;;;;;;;2.90;0.90;;;;;;;14.06;100.00;99436.13;5013978;28;20447;-72
2023/10/29 11:20:52;;;;;;;3.10;1.00;;;;;;;14.03;100.00;99431.38;5013268;28;20949;-74
2023/10/29 11:23:24;;;;;;;2.10;0.50;;;;;;;13.95;100.00;99429.66;5013702;28;20456;-71
2023/10/29 11:25:51;;;;;;;2.00;0.53;;;;;;;13.89;100.00;99427.16;5013846;28;20455;-72